createdAt,value
2019-03-29T00:00:32.079Z,3.80
2019-03-29T00:02:10.351Z,3.70
2019-03-29T00:03:46.775Z,3.60
2019-03-29T00:05:23.095Z,3.70
2019-03-29T00:06:59.601Z,3.60
2019-03-29T00:08:36.095Z,3.60
2019-03-29T00:10:12.725Z,3.50
2019-03-29T00:11:49.044Z,3.50
2019-03-29T00:13:25.400Z,3.40
2019-03-29T00:15:01.889Z,3.30
2019-03-29T00:16:38.118Z,3.30
2019-03-29T00:18:14.353Z,3.30
2019-03-29T00:19:50.291Z,3.20
2019-03-29T00:21:26.560Z,3.20
2019-03-29T00:23:03.076Z,3.10
2019-03-29T00:24:39.391Z,3.10
2019-03-29T00:26:19.431Z,3.10
2019-03-29T00:27:55.732Z,3.00
2019-03-29T00:29:32.147Z,3.00
2019-03-29T00:31:08.532Z,3.00
2019-03-29T00:32:45.983Z,3.00
2019-03-29T00:34:22.416Z,3.00
2019-03-29T00:35:59.231Z,3.00
2019-03-29T00:37:36.130Z,3.00
2019-03-29T00:39:12.351Z,3.00
2019-03-29T00:40:48.665Z,3.00
2019-03-29T00:42:24.970Z,3.00
2019-03-29T00:44:01.307Z,3.00
2019-03-29T00:45:37.898Z,2.90
2019-03-29T00:47:14.203Z,2.90
2019-03-29T00:48:50.385Z,2.90
2019-03-29T00:50:26.606Z,2.90
2019-03-29T00:52:02.935Z,2.90
2019-03-29T00:53:39.050Z,2.90
2019-03-29T00:55:15.379Z,2.90
2019-03-29T00:56:51.946Z,2.90
2019-03-29T00:58:28.335Z,2.80
2019-03-29T01:00:08.453Z,2.80
2019-03-29T01:01:44.553Z,2.80
2019-03-29T01:03:20.791Z,2.80
2019-03-29T01:04:56.726Z,2.80
2019-03-29T01:06:32.813Z,2.80
2019-03-29T01:08:10.549Z,2.80
2019-03-29T01:09:47.242Z,2.80
2019-03-29T01:11:23.483Z,2.80
2019-03-29T01:13:00.847Z,2.80
2019-03-29T01:14:38.358Z,2.80
2019-03-29T01:16:14.560Z,2.80
2019-03-29T01:17:50.800Z,2.80
2019-03-29T01:19:27.097Z,2.80
2019-03-29T01:21:03.512Z,2.80
2019-03-29T01:22:39.749Z,2.80
2019-03-29T01:24:16.156Z,2.80
2019-03-29T01:25:52.360Z,2.80
2019-03-29T01:27:28.530Z,2.80
2019-03-29T01:29:04.957Z,2.80
2019-03-29T01:30:41.275Z,2.80
2019-03-29T01:32:17.417Z,2.90
2019-03-29T01:33:53.658Z,2.80
2019-03-29T01:35:29.758Z,2.80
2019-03-29T01:37:07.186Z,2.80
2019-03-29T01:38:43.438Z,2.80
2019-03-29T01:40:19.663Z,2.80
2019-03-29T01:41:55.822Z,2.80
2019-03-29T01:43:32.142Z,2.80
2019-03-29T01:45:09.649Z,2.80
2019-03-29T01:46:45.789Z,2.80
2019-03-29T01:48:22.420Z,2.80
2019-03-29T01:49:58.801Z,2.80
2019-03-29T01:51:35.078Z,2.80
2019-03-29T01:53:11.341Z,2.70
2019-03-29T01:54:48.276Z,2.80
2019-03-29T01:56:43.871Z,2.80
2019-03-29T01:58:19.972Z,2.80
2019-03-29T01:59:56.134Z,2.80
2019-03-29T02:01:32.255Z,2.80
2019-03-29T02:03:08.487Z,2.80
2019-03-29T02:04:44.768Z,2.80
2019-03-29T02:06:21.359Z,2.90
2019-03-29T02:07:57.225Z,2.90
2019-03-29T02:09:33.577Z,2.90
2019-03-29T02:11:09.719Z,2.90
2019-03-29T02:12:45.953Z,2.90
2019-03-29T02:14:22.159Z,2.90
2019-03-29T02:15:58.467Z,3.00
2019-03-29T02:17:34.749Z,2.90
2019-03-29T02:19:12.089Z,2.90
2019-03-29T02:20:48.355Z,3.00
2019-03-29T02:22:24.527Z,3.00
2019-03-29T02:24:00.699Z,3.00
2019-03-29T02:25:36.935Z,3.00
2019-03-29T02:27:13.338Z,3.00
2019-03-29T02:28:49.497Z,3.00
2019-03-29T02:30:25.735Z,3.00
2019-03-29T02:32:01.945Z,3.00
2019-03-29T02:33:38.087Z,3.00
2019-03-29T02:35:14.990Z,3.00
2019-03-29T02:36:51.079Z,3.00
2019-03-29T02:38:27.219Z,3.00
2019-03-29T02:40:03.952Z,3.00
2019-03-29T02:41:40.158Z,3.00
2019-03-29T02:43:17.580Z,3.00
2019-03-29T02:44:53.757Z,3.00
2019-03-29T02:46:29.859Z,3.00
2019-03-29T02:48:07.402Z,3.00
2019-03-29T02:49:43.616Z,3.00
2019-03-29T02:51:19.759Z,3.00
2019-03-29T02:52:55.855Z,3.00
2019-03-29T02:54:32.024Z,3.00
2019-03-29T02:56:08.214Z,3.00
2019-03-29T02:57:44.475Z,3.00
2019-03-29T02:59:20.762Z,3.00
2019-03-29T03:00:56.996Z,2.90
2019-03-29T03:02:33.253Z,2.90
2019-03-29T03:04:09.492Z,2.90
2019-03-29T03:05:45.777Z,2.90
2019-03-29T03:07:22.042Z,2.90
2019-03-29T03:09:12.244Z,2.90
2019-03-29T03:10:36.272Z,2.90
2019-03-29T03:12:12.516Z,2.90
2019-03-29T03:13:48.669Z,2.80
2019-03-29T03:15:24.991Z,2.80
2019-03-29T03:17:01.237Z,2.90
2019-03-29T03:18:37.503Z,2.80
2019-03-29T03:20:16.688Z,2.80
2019-03-29T03:21:52.917Z,2.80
2019-03-29T03:23:29.179Z,2.80
2019-03-29T03:25:07.663Z,2.70
2019-03-29T03:26:43.757Z,2.70
2019-03-29T03:28:19.843Z,2.70
2019-03-29T03:29:55.909Z,2.70
2019-03-29T03:31:32.117Z,2.70
2019-03-29T03:33:08.368Z,2.70
2019-03-29T03:34:44.622Z,2.70
2019-03-29T03:36:20.859Z,2.70
2019-03-29T03:37:56.982Z,2.70
2019-03-29T03:39:33.120Z,2.70
2019-03-29T03:41:09.415Z,2.70
2019-03-29T03:42:45.627Z,2.70
2019-03-29T03:44:21.785Z,2.70
2019-03-29T03:45:57.888Z,2.70
2019-03-29T03:47:34.096Z,2.80
2019-03-29T03:49:10.193Z,2.70
2019-03-29T03:50:47.162Z,2.70
2019-03-29T03:52:23.565Z,2.70
2019-03-29T03:53:59.788Z,2.70
2019-03-29T03:55:39.293Z,2.70
2019-03-29T03:57:15.896Z,2.70
2019-03-29T03:58:52.713Z,2.70
2019-03-29T04:00:53.826Z,2.60
2019-03-29T04:02:29.995Z,2.60
2019-03-29T04:04:06.386Z,2.60
2019-03-29T04:05:42.388Z,2.50
2019-03-29T04:07:18.578Z,2.50
2019-03-29T04:08:55.050Z,2.50
2019-03-29T04:10:31.145Z,2.50
2019-03-29T04:12:07.378Z,2.50
2019-03-29T04:13:43.631Z,2.50
2019-03-29T04:15:19.866Z,2.50
2019-03-29T04:16:56.223Z,2.50
2019-03-29T04:18:32.524Z,2.50
2019-03-29T04:20:09.188Z,2.40
2019-03-29T04:21:45.246Z,2.50
2019-03-29T04:23:21.534Z,2.40
2019-03-29T04:24:58.843Z,2.40
2019-03-29T04:26:35.047Z,2.40
2019-03-29T04:28:11.352Z,2.40
2019-03-29T04:29:47.519Z,2.40
2019-03-29T04:31:23.820Z,2.40
2019-03-29T04:33:00.065Z,2.40
2019-03-29T04:34:36.263Z,2.40
2019-03-29T04:36:12.568Z,2.40
2019-03-29T04:37:48.696Z,2.40
2019-03-29T04:39:24.901Z,2.30
2019-03-29T04:41:01.118Z,2.40
2019-03-29T04:42:37.224Z,2.30
2019-03-29T04:44:13.419Z,2.30
2019-03-29T04:45:49.530Z,2.30
2019-03-29T04:47:25.800Z,2.30
2019-03-29T04:49:02.109Z,2.30
2019-03-29T04:50:38.367Z,2.10
2019-03-29T04:52:14.464Z,2.10
2019-03-29T04:53:50.631Z,2.20
2019-03-29T04:55:26.960Z,2.20
2019-03-29T04:57:03.084Z,2.20
2019-03-29T04:58:39.251Z,2.20
2019-03-29T05:00:15.933Z,2.20
2019-03-29T05:01:52.180Z,2.20
2019-03-29T05:03:28.353Z,2.20
2019-03-29T05:05:06.462Z,2.20
2019-03-29T05:06:42.566Z,2.20
2019-03-29T05:08:18.729Z,2.20
2019-03-29T05:09:55.005Z,2.20
2019-03-29T05:11:31.117Z,2.20
2019-03-29T05:13:07.422Z,2.20
2019-03-29T05:14:43.768Z,2.30
2019-03-29T05:16:19.872Z,2.30
2019-03-29T05:17:55.971Z,2.30
2019-03-29T05:19:32.416Z,2.40
2019-03-29T05:21:08.679Z,2.40
2019-03-29T05:22:44.949Z,2.40
2019-03-29T05:24:21.093Z,2.40
2019-03-29T05:25:57.358Z,1.90
2019-03-29T05:27:33.540Z,1.90
2019-03-29T05:29:09.727Z,1.90
2019-03-29T05:30:45.827Z,1.80
2019-03-29T05:32:21.960Z,2.10
2019-03-29T05:33:58.126Z,2.10
2019-03-29T05:35:34.291Z,2.10
2019-03-29T05:37:10.535Z,2.10
2019-03-29T05:38:46.817Z,2.30
2019-03-29T05:40:34.249Z,2.30
2019-03-29T05:42:01.040Z,2.40
2019-03-29T05:43:37.154Z,2.50
2019-03-29T05:45:13.604Z,2.70
2019-03-29T05:46:49.914Z,2.80
2019-03-29T05:48:26.155Z,2.90
2019-03-29T05:50:02.392Z,3.00
2019-03-29T05:51:38.744Z,3.10
2019-03-29T05:53:14.850Z,3.20
2019-03-29T05:54:51.020Z,3.30
2019-03-29T05:56:27.253Z,3.40
2019-03-29T05:58:03.497Z,3.50
2019-03-29T05:59:39.791Z,3.60
2019-03-29T06:01:17.082Z,3.70
2019-03-29T06:02:53.249Z,3.80
2019-03-29T06:04:29.422Z,4.00
2019-03-29T06:06:05.456Z,4.10
2019-03-29T06:07:42.954Z,4.20
2019-03-29T06:09:19.048Z,4.40
2019-03-29T06:10:55.064Z,4.50
2019-03-29T06:12:31.264Z,4.60
2019-03-29T06:14:07.160Z,4.70
2019-03-29T06:15:43.430Z,4.80
2019-03-29T06:17:19.559Z,5.10
2019-03-29T06:18:55.765Z,5.20
2019-03-29T06:20:32.000Z,5.40
2019-03-29T06:22:08.337Z,5.60
2019-03-29T06:23:44.571Z,5.90
2019-03-29T06:25:20.747Z,6.10
2019-03-29T06:26:56.914Z,6.10
2019-03-29T06:28:33.087Z,6.50
2019-03-29T06:30:10.984Z,6.90
2019-03-29T06:31:47.263Z,7.40
2019-03-29T06:33:23.501Z,7.70
2019-03-29T06:34:59.802Z,8.10
2019-03-29T06:36:36.525Z,8.50
2019-03-29T06:38:14.027Z,8.90
2019-03-29T06:39:52.972Z,9.20
2019-03-29T06:41:29.198Z,9.50
2019-03-29T06:43:05.709Z,9.80
2019-03-29T06:44:44.277Z,10.00
2019-03-29T06:46:19.891Z,10.30
2019-03-29T06:47:56.219Z,10.60
2019-03-29T06:49:32.403Z,10.90
2019-03-29T06:51:08.582Z,11.30
2019-03-29T06:52:44.752Z,11.50
2019-03-29T06:54:20.937Z,11.50
2019-03-29T06:55:59.307Z,11.60
2019-03-29T06:57:35.004Z,11.70
2019-03-29T06:59:10.808Z,11.90
2019-03-29T07:00:47.216Z,11.90
2019-03-29T07:02:23.158Z,12.10
2019-03-29T07:03:59.406Z,12.30
2019-03-29T07:05:35.572Z,12.50
2019-03-29T07:07:11.661Z,12.70
2019-03-29T07:08:47.762Z,12.90
2019-03-29T07:10:24.018Z,13.10
2019-03-29T07:12:00.209Z,13.30
2019-03-29T07:13:36.317Z,13.50
2019-03-29T07:15:12.627Z,13.60
2019-03-29T07:16:48.848Z,13.70
2019-03-29T07:18:25.191Z,13.90
2019-03-29T07:20:02.160Z,14.10
2019-03-29T07:21:38.338Z,14.30
2019-03-29T07:23:14.579Z,14.30
2019-03-29T07:24:50.702Z,14.50
2019-03-29T07:26:26.805Z,14.70
2019-03-29T07:28:03.066Z,14.70
2019-03-29T07:29:39.350Z,14.80
2019-03-29T07:31:15.630Z,14.80
2019-03-29T07:32:51.865Z,14.90
2019-03-29T07:34:28.224Z,14.90
2019-03-29T07:36:04.466Z,14.70
2019-03-29T07:37:40.730Z,14.30
2019-03-29T07:39:16.970Z,14.10
2019-03-29T07:40:52.922Z,13.80
2019-03-29T07:42:48.429Z,13.60
2019-03-29T07:44:24.716Z,13.40
2019-03-29T07:46:01.059Z,13.20
2019-03-29T07:47:37.314Z,12.90
2019-03-29T07:49:13.662Z,12.60
2019-03-29T07:50:50.015Z,12.40
2019-03-29T07:52:26.025Z,12.30
2019-03-29T07:54:02.209Z,12.20
2019-03-29T07:55:38.311Z,12.10
2019-03-29T07:57:14.460Z,11.90
2019-03-29T07:58:50.734Z,11.80
2019-03-29T08:00:26.978Z,11.80
2019-03-29T08:02:03.221Z,11.80
2019-03-29T08:03:39.428Z,11.80
2019-03-29T08:05:15.728Z,11.80
2019-03-29T08:06:52.070Z,11.70
2019-03-29T08:08:32.253Z,11.60
2019-03-29T08:10:07.964Z,11.70
2019-03-29T08:11:46.489Z,11.50
2019-03-29T08:13:22.156Z,11.60
2019-03-29T08:14:58.408Z,11.60
2019-03-29T08:16:34.738Z,11.60
2019-03-29T08:18:11.064Z,11.50
2019-03-29T08:19:47.311Z,11.50
2019-03-29T08:21:24.807Z,11.50
2019-03-29T08:23:01.227Z,11.40
2019-03-29T08:24:37.308Z,11.40
2019-03-29T08:26:13.555Z,11.30
2019-03-29T08:27:49.807Z,11.20
2019-03-29T08:29:26.077Z,11.10
2019-03-29T08:31:02.594Z,11.10
2019-03-29T08:32:38.764Z,11.10
2019-03-29T08:34:16.144Z,11.00
2019-03-29T08:35:52.308Z,10.90
2019-03-29T08:37:28.529Z,10.90
2019-03-29T08:39:10.028Z,10.70
2019-03-29T08:40:45.468Z,10.60
2019-03-29T08:42:21.829Z,10.50
2019-03-29T08:43:57.902Z,10.40
2019-03-29T08:45:34.286Z,10.40
2019-03-29T08:47:10.620Z,10.40
2019-03-29T08:48:48.132Z,10.20
2019-03-29T08:50:24.433Z,10.20
2019-03-29T08:52:00.591Z,10.20
2019-03-29T08:53:36.827Z,10.20
2019-03-29T08:55:13.145Z,10.10
2019-03-29T08:56:49.226Z,10.20
2019-03-29T08:58:25.509Z,10.20
2019-03-29T09:00:01.677Z,10.20
2019-03-29T09:01:37.982Z,10.10
2019-03-29T09:03:14.285Z,10.20
2019-03-29T09:04:50.630Z,10.30
2019-03-29T09:06:29.976Z,10.50
2019-03-29T09:08:04.585Z,10.70
2019-03-29T09:09:40.794Z,10.90
2019-03-29T09:11:16.905Z,11.00
2019-03-29T09:12:53.278Z,11.20
2019-03-29T09:14:31.395Z,11.30
2019-03-29T09:16:07.370Z,11.20
2019-03-29T09:17:43.603Z,11.30
2019-03-29T09:19:19.849Z,11.40
2019-03-29T09:20:56.013Z,11.40
2019-03-29T09:22:32.175Z,11.40
2019-03-29T09:24:21.061Z,11.40
2019-03-29T09:25:46.515Z,11.50
2019-03-29T09:27:22.693Z,11.50
2019-03-29T09:28:59.022Z,11.70
2019-03-29T09:30:35.294Z,12.00
2019-03-29T09:32:11.606Z,12.40
2019-03-29T09:33:47.946Z,12.80
2019-03-29T09:35:24.323Z,13.10
2019-03-29T09:37:04.778Z,13.30
2019-03-29T09:38:43.688Z,13.60
2019-03-29T09:40:20.650Z,13.70
2019-03-29T09:41:56.872Z,13.90
2019-03-29T09:43:33.150Z,14.10
2019-03-29T09:45:09.847Z,14.40
2019-03-29T09:46:46.149Z,14.60
2019-03-29T09:48:22.262Z,14.70
2019-03-29T09:49:58.192Z,14.90
2019-03-29T09:51:36.020Z,14.90
2019-03-29T09:53:12.102Z,14.90
2019-03-29T09:54:48.196Z,14.80
2019-03-29T09:56:37.919Z,14.80
2019-03-29T09:58:02.785Z,14.80
2019-03-29T09:59:39.033Z,14.80
2019-03-29T10:01:15.160Z,15.00
2019-03-29T10:02:51.481Z,15.00
2019-03-29T10:04:28.962Z,15.20
2019-03-29T10:06:05.424Z,15.20
2019-03-29T10:07:41.826Z,15.40
2019-03-29T10:09:18.039Z,15.80
2019-03-29T10:10:54.211Z,15.90
2019-03-29T10:12:42.574Z,15.70
2019-03-29T10:14:08.358Z,15.50
2019-03-29T10:15:44.789Z,15.20
2019-03-29T10:17:20.956Z,15.20
2019-03-29T10:18:57.124Z,15.30
2019-03-29T10:20:33.220Z,15.40
2019-03-29T10:22:09.512Z,15.40
2019-03-29T10:23:45.704Z,15.20
2019-03-29T10:25:22.330Z,15.20
2019-03-29T10:26:58.505Z,15.20
2019-03-29T10:28:34.741Z,15.60
2019-03-29T10:30:11.856Z,15.90
2019-03-29T10:31:48.155Z,15.90
2019-03-29T10:33:24.442Z,15.90
2019-03-29T10:35:00.676Z,15.70
2019-03-29T10:36:36.845Z,15.40
2019-03-29T10:38:13.051Z,15.50
2019-03-29T10:39:49.364Z,15.50
2019-03-29T10:41:25.808Z,15.70
2019-03-29T10:43:01.909Z,16.00
2019-03-29T10:44:38.145Z,16.30
2019-03-29T10:46:14.306Z,16.40
2019-03-29T10:47:50.493Z,16.60
2019-03-29T10:49:26.640Z,16.60
2019-03-29T10:51:02.995Z,16.50
2019-03-29T10:52:39.106Z,16.30
2019-03-29T10:54:15.339Z,16.30
2019-03-29T10:55:51.536Z,16.40
2019-03-29T10:57:27.612Z,16.40
2019-03-29T10:59:04.034Z,16.50
2019-03-29T11:00:41.614Z,16.80
2019-03-29T11:02:17.845Z,16.90
2019-03-29T11:03:54.079Z,16.90
2019-03-29T11:05:30.173Z,17.00
2019-03-29T11:07:06.504Z,17.10
2019-03-29T11:08:43.715Z,17.10
2019-03-29T11:10:36.388Z,17.40
2019-03-29T11:12:12.687Z,17.60
2019-03-29T11:13:49.069Z,17.60
2019-03-29T11:15:25.331Z,17.60
2019-03-29T11:17:01.204Z,17.30
2019-03-29T11:18:37.340Z,17.00
2019-03-29T11:20:13.611Z,16.80
2019-03-29T11:21:49.782Z,16.80
2019-03-29T11:23:26.020Z,16.60
2019-03-29T11:25:02.253Z,16.10
2019-03-29T11:26:38.585Z,15.80
2019-03-29T11:28:14.822Z,15.40
2019-03-29T11:29:52.020Z,15.10
2019-03-29T11:31:28.391Z,15.00
2019-03-29T11:33:05.328Z,14.50
2019-03-29T11:34:41.415Z,14.20
2019-03-29T11:36:17.721Z,14.40
2019-03-29T11:37:53.952Z,14.80
2019-03-29T11:39:30.608Z,15.10
2019-03-29T11:41:06.870Z,15.40
2019-03-29T11:42:43.038Z,15.50
2019-03-29T11:44:19.341Z,15.20
2019-03-29T11:45:56.852Z,15.20
2019-03-29T11:47:33.084Z,15.20
2019-03-29T11:49:09.265Z,15.00
2019-03-29T11:50:45.462Z,15.00
2019-03-29T11:52:21.600Z,15.30
2019-03-29T11:53:57.767Z,15.30
2019-03-29T11:55:34.012Z,15.30
2019-03-29T11:57:10.436Z,15.20
2019-03-29T11:58:46.603Z,15.10
2019-03-29T12:00:37.263Z,14.60
2019-03-29T12:02:13.457Z,14.30
2019-03-29T12:03:50.007Z,13.80
2019-03-29T12:05:26.180Z,14.10
2019-03-29T12:07:03.697Z,14.40
2019-03-29T12:08:39.984Z,14.50
2019-03-29T12:10:16.286Z,14.40
2019-03-29T12:11:52.461Z,14.70
2019-03-29T12:13:40.508Z,14.80
2019-03-29T12:15:09.057Z,14.90
2019-03-29T12:16:45.399Z,14.80
2019-03-29T12:18:21.918Z,14.50
2019-03-29T12:19:58.365Z,14.40
2019-03-29T12:21:34.524Z,14.50
2019-03-29T12:23:11.055Z,14.70
2019-03-29T12:24:47.662Z,14.90
2019-03-29T12:26:23.885Z,15.00
2019-03-29T12:28:00.039Z,14.90
2019-03-29T12:29:36.316Z,15.10
2019-03-29T12:31:13.141Z,15.10
2019-03-29T12:32:49.396Z,15.10
2019-03-29T12:34:25.738Z,15.00
2019-03-29T12:36:01.833Z,15.00
2019-03-29T12:37:38.074Z,14.90
2019-03-29T12:39:16.845Z,14.90
2019-03-29T12:40:53.384Z,14.90
2019-03-29T12:42:29.745Z,14.80
2019-03-29T12:44:06.144Z,14.90
2019-03-29T12:45:42.407Z,14.90
2019-03-29T12:47:18.593Z,14.90
2019-03-29T12:48:55.005Z,15.00
2019-03-29T12:50:31.173Z,14.80
2019-03-29T12:52:07.481Z,14.80
2019-03-29T12:53:43.932Z,14.80
2019-03-29T12:55:20.837Z,14.80
2019-03-29T12:56:57.179Z,14.90
2019-03-29T12:58:33.446Z,14.80
2019-03-29T13:00:11.567Z,14.80
2019-03-29T13:01:47.867Z,14.80
2019-03-29T13:03:25.668Z,14.70
2019-03-29T13:05:03.418Z,14.70
2019-03-29T13:06:39.590Z,14.80
2019-03-29T13:08:15.927Z,14.80
2019-03-29T13:09:52.104Z,14.60
2019-03-29T13:11:28.368Z,14.50
2019-03-29T13:13:04.681Z,14.50
2019-03-29T13:14:40.851Z,14.10
2019-03-29T13:16:18.261Z,14.20
2019-03-29T13:17:54.617Z,14.20
2019-03-29T13:19:30.939Z,14.30
2019-03-29T13:21:07.038Z,14.40
2019-03-29T13:22:43.222Z,14.40
2019-03-29T13:24:19.457Z,14.40
2019-03-29T13:25:56.832Z,14.40
2019-03-29T13:27:33.186Z,14.30
2019-03-29T13:29:09.380Z,14.30
2019-03-29T13:30:45.626Z,14.30
2019-03-29T13:32:21.942Z,14.20
2019-03-29T13:33:58.244Z,14.20
2019-03-29T13:35:34.671Z,14.10
2019-03-29T13:37:10.769Z,14.20
2019-03-29T13:38:47.051Z,14.10
2019-03-29T13:40:23.493Z,14.10
2019-03-29T13:41:59.667Z,13.90
2019-03-29T13:43:35.984Z,14.00
2019-03-29T13:45:12.822Z,13.90
2019-03-29T13:46:48.925Z,13.90
2019-03-29T13:48:25.106Z,13.80
2019-03-29T13:50:01.953Z,13.80
2019-03-29T13:51:38.562Z,13.80
2019-03-29T13:53:14.508Z,13.70
2019-03-29T13:54:50.725Z,13.70
2019-03-29T13:56:26.588Z,13.70
2019-03-29T13:58:02.899Z,13.70
2019-03-29T13:59:39.071Z,13.70
2019-03-29T14:01:15.221Z,13.60
2019-03-29T14:02:51.452Z,13.50
2019-03-29T14:04:27.657Z,13.60
2019-03-29T14:06:04.007Z,13.60
2019-03-29T14:07:41.391Z,13.50
2019-03-29T14:09:17.637Z,13.50
2019-03-29T14:10:54.126Z,13.50
2019-03-29T14:12:30.429Z,13.50
2019-03-29T14:14:06.933Z,13.50
2019-03-29T14:15:43.108Z,13.50
2019-03-29T14:17:19.278Z,13.40
2019-03-29T14:18:55.602Z,13.40
2019-03-29T14:20:34.415Z,13.50
2019-03-29T14:22:10.660Z,13.40
2019-03-29T14:23:46.917Z,13.50
2019-03-29T14:25:23.016Z,13.40
2019-03-29T14:26:59.460Z,13.40
2019-03-29T14:28:35.560Z,13.40
2019-03-29T14:30:12.373Z,13.50
2019-03-29T14:31:48.411Z,13.50
2019-03-29T14:33:24.597Z,13.50
2019-03-29T14:35:02.289Z,13.40
2019-03-29T14:36:38.642Z,13.40
2019-03-29T14:38:14.784Z,13.40
2019-03-29T14:39:50.954Z,13.40
2019-03-29T14:41:27.140Z,13.40
2019-03-29T14:43:04.571Z,13.30
2019-03-29T14:44:51.659Z,13.30
2019-03-29T14:46:18.583Z,13.30
2019-03-29T14:47:54.770Z,13.30
2019-03-29T14:49:31.120Z,12.90
2019-03-29T14:51:07.385Z,12.90
2019-03-29T14:52:43.848Z,12.90
2019-03-29T14:54:19.973Z,12.80
2019-03-29T14:55:56.195Z,12.80
2019-03-29T14:57:32.468Z,12.80
2019-03-29T14:59:08.737Z,12.60
2019-03-29T15:00:48.594Z,12.50
2019-03-29T15:02:23.913Z,12.50
2019-03-29T15:04:00.183Z,12.40
2019-03-29T15:05:36.591Z,12.30
2019-03-29T15:07:12.911Z,12.30
2019-03-29T15:08:51.331Z,12.20
2019-03-29T15:10:29.672Z,12.10
2019-03-29T15:12:07.053Z,12.10
2019-03-29T15:13:43.575Z,12.10
2019-03-29T15:15:19.881Z,12.10
2019-03-29T15:16:56.078Z,12.00
2019-03-29T15:18:32.179Z,12.00
2019-03-29T15:20:09.051Z,12.00
2019-03-29T15:21:45.122Z,12.00
2019-03-29T15:23:21.524Z,12.00
2019-03-29T15:24:57.781Z,12.00
2019-03-29T15:26:34.025Z,11.90
2019-03-29T15:28:10.264Z,11.90
2019-03-29T15:29:46.611Z,11.80
2019-03-29T15:31:24.002Z,11.80
2019-03-29T15:33:00.244Z,11.80
2019-03-29T15:34:36.352Z,11.90
2019-03-29T15:36:12.688Z,11.80
2019-03-29T15:37:48.903Z,11.80
2019-03-29T15:39:25.219Z,11.80
2019-03-29T15:41:01.399Z,11.70
2019-03-29T15:42:37.702Z,11.80
2019-03-29T15:44:14.011Z,11.80
2019-03-29T15:45:50.283Z,11.80
2019-03-29T15:47:27.719Z,11.70
2019-03-29T15:49:03.961Z,11.60
2019-03-29T15:50:40.200Z,11.50
2019-03-29T15:52:16.441Z,11.40
2019-03-29T15:53:52.809Z,11.40
2019-03-29T15:55:28.994Z,11.30
2019-03-29T15:57:05.242Z,11.30
2019-03-29T15:58:42.536Z,11.30
2019-03-29T16:00:18.917Z,11.30
2019-03-29T16:01:55.120Z,11.20
2019-03-29T16:03:31.250Z,11.20
2019-03-29T16:05:07.980Z,11.20
2019-03-29T16:06:44.216Z,11.20
2019-03-29T16:08:20.544Z,11.00
2019-03-29T16:09:56.749Z,11.00
2019-03-29T16:11:32.989Z,11.10
2019-03-29T16:13:09.092Z,11.00
2019-03-29T16:14:45.263Z,11.00
2019-03-29T16:16:21.550Z,11.00
2019-03-29T16:17:57.772Z,10.90
2019-03-29T16:19:34.041Z,10.90
2019-03-29T16:21:11.489Z,10.90
2019-03-29T16:22:48.469Z,10.90
2019-03-29T16:24:24.704Z,10.90
2019-03-29T16:26:00.914Z,10.80
2019-03-29T16:27:37.180Z,10.80
2019-03-29T16:29:13.052Z,10.70
2019-03-29T16:30:49.373Z,10.70
2019-03-29T16:32:25.644Z,10.70
2019-03-29T16:34:01.985Z,10.70
2019-03-29T16:35:38.225Z,10.60
2019-03-29T16:37:14.334Z,10.60
2019-03-29T16:38:50.431Z,10.50
2019-03-29T16:40:26.731Z,10.50
2019-03-29T16:42:02.960Z,10.50
2019-03-29T16:43:39.307Z,10.50
2019-03-29T16:45:15.703Z,10.40
2019-03-29T16:46:51.538Z,10.30
2019-03-29T16:48:28.964Z,10.20
2019-03-29T16:50:10.546Z,10.20
2019-03-29T16:51:46.849Z,10.10
2019-03-29T16:53:23.172Z,10.10
2019-03-29T16:55:12.505Z,10.10
2019-03-29T16:56:37.564Z,10.10
2019-03-29T16:58:13.872Z,10.00
2019-03-29T16:59:50.127Z,10.00
2019-03-29T17:01:26.319Z,10.00
2019-03-29T17:03:02.581Z,10.00
2019-03-29T17:04:38.912Z,9.90
2019-03-29T17:06:15.064Z,9.80
2019-03-29T17:07:51.291Z,9.80
2019-03-29T17:09:27.596Z,9.70
2019-03-29T17:11:03.893Z,9.80
2019-03-29T17:12:40.047Z,9.70
2019-03-29T17:14:16.291Z,9.70
2019-03-29T17:16:01.535Z,9.60
2019-03-29T17:17:30.179Z,9.70
2019-03-29T17:19:06.442Z,9.60
2019-03-29T17:20:42.677Z,9.60
2019-03-29T17:22:18.824Z,9.60
2019-03-29T17:23:54.993Z,9.60
2019-03-29T17:25:31.226Z,9.60
2019-03-29T17:27:07.561Z,9.60
2019-03-29T17:28:43.742Z,9.50
2019-03-29T17:30:24.485Z,9.60
2019-03-29T17:32:00.331Z,9.60
2019-03-29T17:33:36.469Z,9.60
2019-03-29T17:35:12.694Z,9.50
2019-03-29T17:36:48.923Z,9.60
2019-03-29T17:38:25.267Z,9.50
2019-03-29T17:40:01.352Z,9.60
2019-03-29T17:41:37.511Z,9.50
2019-03-29T17:43:13.814Z,9.60
2019-03-29T17:44:52.263Z,9.60
2019-03-29T17:46:47.676Z,9.50
2019-03-29T17:48:23.944Z,9.50
2019-03-29T17:50:00.402Z,9.50
2019-03-29T17:51:36.799Z,9.50
2019-03-29T17:53:13.115Z,9.50
2019-03-29T17:54:49.416Z,9.50
2019-03-29T17:56:25.734Z,9.50
2019-03-29T17:58:01.956Z,9.40
2019-03-29T17:59:38.188Z,9.40
2019-03-29T18:01:14.416Z,9.50
2019-03-29T18:02:50.679Z,9.50
2019-03-29T18:04:26.890Z,9.50
2019-03-29T18:06:03.051Z,9.50
2019-03-29T18:07:39.361Z,9.40
2019-03-29T18:09:15.510Z,9.40
2019-03-29T18:10:51.767Z,9.40
2019-03-29T18:12:27.934Z,9.40
2019-03-29T18:14:04.330Z,9.40
2019-03-29T18:15:40.658Z,9.40
2019-03-29T18:17:17.009Z,9.40
2019-03-29T18:18:53.235Z,9.40
2019-03-29T18:20:29.463Z,9.40
2019-03-29T18:22:05.777Z,9.30
2019-03-29T18:23:41.934Z,9.30
2019-03-29T18:25:18.378Z,9.30
2019-03-29T18:26:54.535Z,9.30
2019-03-29T18:28:30.699Z,9.20
2019-03-29T18:30:10.867Z,9.20
2019-03-29T18:31:47.268Z,9.20
2019-03-29T18:33:25.071Z,9.20
2019-03-29T18:35:01.278Z,9.10
2019-03-29T18:36:39.075Z,9.10
2019-03-29T18:38:15.270Z,9.10
2019-03-29T18:39:54.849Z,9.00
2019-03-29T18:41:29.808Z,9.00
2019-03-29T18:43:06.828Z,8.90
2019-03-29T18:44:43.112Z,8.90
2019-03-29T18:46:19.345Z,8.90
2019-03-29T18:47:55.649Z,8.90
2019-03-29T18:49:31.952Z,8.80
2019-03-29T18:51:08.214Z,8.80
2019-03-29T18:52:44.456Z,8.80
2019-03-29T18:54:20.576Z,8.70
2019-03-29T18:55:56.783Z,8.60
2019-03-29T18:57:33.017Z,8.60
2019-03-29T18:59:09.237Z,8.60
2019-03-29T19:00:45.412Z,8.50
2019-03-29T19:02:21.570Z,8.50
2019-03-29T19:03:59.002Z,8.40
2019-03-29T19:05:35.505Z,8.40
2019-03-29T19:07:11.671Z,8.30
2019-03-29T19:08:48.122Z,8.20
2019-03-29T19:10:24.624Z,8.20
2019-03-29T19:12:00.960Z,8.10
2019-03-29T19:13:38.306Z,8.10
2019-03-29T19:15:14.539Z,8.00
2019-03-29T19:16:58.763Z,8.00
2019-03-29T19:18:28.559Z,7.90
2019-03-29T19:20:10.650Z,7.80
2019-03-29T19:21:44.431Z,7.80
2019-03-29T19:23:20.595Z,7.70
2019-03-29T19:24:56.704Z,7.70
2019-03-29T19:26:32.864Z,7.60
2019-03-29T19:28:10.143Z,7.60
2019-03-29T19:29:46.297Z,7.60
2019-03-29T19:31:22.649Z,7.50
2019-03-29T19:32:58.853Z,7.50
2019-03-29T19:34:35.017Z,7.40
2019-03-29T19:36:11.477Z,7.40
2019-03-29T19:37:47.798Z,7.30
2019-03-29T19:39:25.077Z,7.30
2019-03-29T19:41:01.428Z,7.20
2019-03-29T19:42:37.730Z,7.20
2019-03-29T19:44:14.031Z,7.20
2019-03-29T19:45:50.245Z,7.20
2019-03-29T19:47:26.462Z,7.10
2019-03-29T19:49:02.815Z,7.10
2019-03-29T19:50:38.995Z,7.00
2019-03-29T19:52:15.149Z,7.00
2019-03-29T19:53:51.315Z,7.00
2019-03-29T19:55:27.675Z,7.00
2019-03-29T19:57:03.817Z,6.90
2019-03-29T19:58:40.021Z,6.90
2019-03-29T20:00:17.526Z,6.90
2019-03-29T20:01:53.807Z,6.90
2019-03-29T20:03:30.043Z,6.80
2019-03-29T20:05:10.751Z,6.80
2019-03-29T20:06:49.041Z,6.80
2019-03-29T20:08:25.384Z,6.70
2019-03-29T20:10:01.704Z,6.70
2019-03-29T20:11:38.244Z,6.70
2019-03-29T20:13:14.576Z,6.60
2019-03-29T20:14:50.819Z,6.60
2019-03-29T20:16:27.120Z,6.60
2019-03-29T20:18:03.357Z,6.60
2019-03-29T20:19:39.604Z,6.50
2019-03-29T20:21:15.906Z,6.50
2019-03-29T20:22:53.806Z,6.50
2019-03-29T20:24:29.972Z,6.50
2019-03-29T20:26:08.267Z,6.50
2019-03-29T20:27:44.081Z,6.50
2019-03-29T20:29:20.321Z,6.50
2019-03-29T20:30:56.565Z,6.50
2019-03-29T20:32:32.885Z,6.50
2019-03-29T20:34:08.884Z,6.50
2019-03-29T20:35:45.315Z,6.40
2019-03-29T20:37:21.490Z,6.50
2019-03-29T20:38:57.755Z,6.50
2019-03-29T20:40:34.062Z,6.50
2019-03-29T20:42:10.165Z,6.50
2019-03-29T20:43:46.332Z,6.50
2019-03-29T20:45:22.663Z,6.60
2019-03-29T20:46:58.789Z,6.60
2019-03-29T20:48:35.196Z,6.60
2019-03-29T20:50:11.784Z,6.60
2019-03-29T20:51:48.375Z,6.70
2019-03-29T20:53:24.606Z,6.80
2019-03-29T20:55:00.952Z,6.80
2019-03-29T20:56:37.222Z,6.80
2019-03-29T20:58:13.515Z,6.90
2019-03-29T20:59:49.675Z,6.90
2019-03-29T21:01:26.117Z,6.90
2019-03-29T21:03:02.349Z,7.00
2019-03-29T21:04:38.599Z,7.00